Judson, North Dakota
Current Conditions -  °F | °C
As of 1:15 AM on Saturday 20 Dec 2014 (Local Time) from KD57 Reporting Station
NA  
Wind Chill: 16°   Ceiling: NA
Heat Index: 16°   Visibility: 10mi
Dew Point: 14°   Wind: 3mph
Humidity: 93%   Direction: 170°S
Pressure: 29.91"   Gusts: NA
Location:  46.861°N, 101.466°W
Report Text: KD57 200715Z AUTO 17003KT 10SM M09/M10 A2991 RMK AO2 TSNO
Loading
Personal Weather Stations






























Interactive Weather Map New forecast layout! Learn more

10-Day Weather Forecast

Advertisements
Track Severe Weather on mobile